createdAt,value
2017-09-04T00:00:43.524Z,980.6
2017-09-04T00:01:45.601Z,980.5
2017-09-04T00:02:47.765Z,980.5
2017-09-04T00:03:49.834Z,980.4
2017-09-04T00:04:52.234Z,980.5
2017-09-04T00:05:54.357Z,980.5
2017-09-04T00:06:56.455Z,980.5
2017-09-04T00:07:58.552Z,980.4
2017-09-04T00:09:00.708Z,980.4
2017-09-04T00:10:03.057Z,980.4
2017-09-04T00:11:05.181Z,980.4
2017-09-04T00:12:07.277Z,980.5
2017-09-04T00:13:09.360Z,980.5
2017-09-04T00:14:11.524Z,980.4
2017-09-04T00:15:13.944Z,980.5
2017-09-04T00:16:16.062Z,980.4
2017-09-04T00:17:18.117Z,980.5
2017-09-04T00:18:20.230Z,980.4
2017-09-04T00:19:22.376Z,980.4
2017-09-04T00:20:24.842Z,980.4
2017-09-04T00:21:27.251Z,980.4
2017-09-04T00:22:29.380Z,980.4
2017-09-04T00:23:31.448Z,980.4
2017-09-04T00:24:33.629Z,980.4
2017-09-04T00:25:35.975Z,980.4
2017-09-04T00:26:38.087Z,980.4
2017-09-04T00:27:40.262Z,980.4
2017-09-04T00:28:42.390Z,980.4
2017-09-04T00:29:44.433Z,980.4
2017-09-04T00:30:47.001Z,980.4
2017-09-04T00:31:49.089Z,980.3
2017-09-04T00:32:51.226Z,980.4
2017-09-04T00:33:53.310Z,980.4
2017-09-04T00:34:55.411Z,980.4
2017-09-04T00:35:57.889Z,980.4
2017-09-04T00:37:00.016Z,980.3
2017-09-04T00:38:02.058Z,980.4
2017-09-04T00:39:04.171Z,980.4
2017-09-04T00:40:06.272Z,980.4
2017-09-04T00:41:08.731Z,980.4
2017-09-04T00:42:10.819Z,980.4
2017-09-04T00:43:12.925Z,980.4
2017-09-04T00:44:15.021Z,980.4
2017-09-04T00:45:17.071Z,980.3
2017-09-04T00:46:19.515Z,980.3
2017-09-04T00:47:21.602Z,980.4
2017-09-04T00:48:23.753Z,980.4
2017-09-04T00:49:25.804Z,980.4
2017-09-04T00:50:27.860Z,980.4
2017-09-04T00:51:30.297Z,980.4
2017-09-04T00:52:32.553Z,980.3
2017-09-04T00:53:34.628Z,980.3
2017-09-04T00:54:36.848Z,980.4
2017-09-04T00:55:38.884Z,980.4
2017-09-04T00:56:41.333Z,980.3
2017-09-04T00:57:43.461Z,980.4
2017-09-04T00:58:45.533Z,980.4
2017-09-04T00:59:47.627Z,980.3
2017-09-04T01:00:49.719Z,980.4
2017-09-04T01:01:52.132Z,980.3
2017-09-04T01:02:54.319Z,980.3
2017-09-04T01:03:56.455Z,980.3
2017-09-04T01:04:58.518Z,980.3
2017-09-04T01:06:00.622Z,980.3
2017-09-04T01:07:03.038Z,980.3
2017-09-04T01:08:05.129Z,980.3
2017-09-04T01:09:07.248Z,980.3
2017-09-04T01:10:09.336Z,980.3
2017-09-04T01:11:11.478Z,980.3
2017-09-04T01:12:13.930Z,980.3
2017-09-04T01:13:15.956Z,980.3
2017-09-04T01:14:18.057Z,980.3
2017-09-04T01:15:20.163Z,980.3
2017-09-04T01:16:22.303Z,980.3
2017-09-04T01:17:24.645Z,980.2
2017-09-04T01:18:26.777Z,980.3
2017-09-04T01:19:28.870Z,980.3
2017-09-04T01:20:30.964Z,980.3
2017-09-04T01:21:33.071Z,980.3
2017-09-04T01:22:35.497Z,980.3
2017-09-04T01:23:37.591Z,980.3
2017-09-04T01:24:39.691Z,980.4
2017-09-04T01:25:41.776Z,980.3
2017-09-04T01:26:43.856Z,980.4
2017-09-04T01:27:46.334Z,980.4
2017-09-04T01:28:48.518Z,980.4
2017-09-04T01:29:50.604Z,980.3
2017-09-04T01:30:52.714Z,980.4
2017-09-04T01:31:54.857Z,980.4
2017-09-04T01:32:57.252Z,980.4
2017-09-04T01:33:59.338Z,980.3
2017-09-04T01:35:01.412Z,980.4
2017-09-04T01:36:03.536Z,980.4
2017-09-04T01:37:05.606Z,980.4
2017-09-04T01:38:07.974Z,980.3
2017-09-04T01:39:10.110Z,980.4
2017-09-04T01:40:12.208Z,980.4
2017-09-04T01:41:14.292Z,980.4
2017-09-04T01:42:16.449Z,980.5
2017-09-04T01:43:18.983Z,980.4
2017-09-04T01:44:21.064Z,980.5
2017-09-04T01:45:23.079Z,980.4
2017-09-04T01:46:25.168Z,980.4
2017-09-04T01:47:27.283Z,980.4
2017-09-04T01:48:29.574Z,980.4
2017-09-04T01:49:31.706Z,980.3
2017-09-04T01:50:33.802Z,980.4
2017-09-04T01:51:35.925Z,980.4
2017-09-04T01:52:37.976Z,980.4
2017-09-04T01:53:40.525Z,980.4
2017-09-04T01:54:42.632Z,980.4
2017-09-04T01:55:44.777Z,980.4
2017-09-04T01:56:46.886Z,980.4
2017-09-04T01:57:49.028Z,980.5
2017-09-04T01:58:51.535Z,980.5
2017-09-04T01:59:53.691Z,980.4
2017-09-04T02:00:55.838Z,980.5
2017-09-04T02:01:57.934Z,980.4
2017-09-04T02:03:00.081Z,980.4
2017-09-04T02:04:02.550Z,980.5
2017-09-04T02:05:04.600Z,980.4
2017-09-04T02:06:06.721Z,980.5
2017-09-04T02:07:08.806Z,980.4
2017-09-04T02:08:10.860Z,980.4
2017-09-04T02:09:13.290Z,980.4
2017-09-04T02:10:15.320Z,980.4
2017-09-04T02:11:17.445Z,980.4
2017-09-04T02:12:19.537Z,980.4
2017-09-04T02:13:21.536Z,980.4
2017-09-04T02:14:23.896Z,980.4
2017-09-04T02:15:26.006Z,980.4
2017-09-04T02:16:28.163Z,980.4
2017-09-04T02:17:30.287Z,980.4
2017-09-04T02:18:32.357Z,980.5
2017-09-04T02:19:34.737Z,980.4
2017-09-04T02:20:36.804Z,980.5
2017-09-04T02:21:38.900Z,980.5
2017-09-04T02:22:41.066Z,980.5
2017-09-04T02:23:43.491Z,980.5
2017-09-04T02:24:45.845Z,980.5
2017-09-04T02:25:47.887Z,980.5
2017-09-04T02:26:49.999Z,980.5
2017-09-04T02:27:52.098Z,980.5
2017-09-04T02:28:54.173Z,980.5
2017-09-04T02:29:56.561Z,980.5
2017-09-04T02:30:58.680Z,980.5
2017-09-04T02:32:00.809Z,980.5
2017-09-04T02:33:02.941Z,980.5
2017-09-04T02:34:05.034Z,980.4
2017-09-04T02:35:07.482Z,980.5
2017-09-04T02:36:09.517Z,980.5
2017-09-04T02:37:11.560Z,980.5
2017-09-04T02:38:13.679Z,980.4
2017-09-04T02:39:15.786Z,980.5
2017-09-04T02:40:18.235Z,980.5
2017-09-04T02:41:20.323Z,980.5
2017-09-04T02:42:22.422Z,980.5
2017-09-04T02:43:24.507Z,980.5
2017-09-04T02:44:26.603Z,980.4
2017-09-04T02:45:28.981Z,980.5
2017-09-04T02:46:31.094Z,980.5
2017-09-04T02:47:33.194Z,980.5
2017-09-04T02:48:35.293Z,980.4
2017-09-04T02:49:37.385Z,980.4
2017-09-04T02:50:39.862Z,980.4
2017-09-04T02:51:41.922Z,980.4
2017-09-04T02:52:44.003Z,980.4
2017-09-04T02:53:46.088Z,980.3
2017-09-04T02:54:48.231Z,980.3
2017-09-04T02:55:50.642Z,980.3
2017-09-04T02:56:52.705Z,980.2
2017-09-04T02:57:54.925Z,980.2
2017-09-04T02:58:57.014Z,980.3
2017-09-04T02:59:59.090Z,980.2
2017-09-04T03:01:01.488Z,980.2
2017-09-04T03:02:03.554Z,980.2
2017-09-04T03:03:05.669Z,980.2
2017-09-04T03:04:07.777Z,980.3
2017-09-04T03:05:09.856Z,980.2
2017-09-04T03:06:12.269Z,980.2
2017-09-04T03:07:14.331Z,980.2
2017-09-04T03:08:16.459Z,980.2
2017-09-04T03:09:18.559Z,980.2
2017-09-04T03:10:20.637Z,980.1
2017-09-04T03:11:23.082Z,980.2
2017-09-04T03:12:25.242Z,980.1
2017-09-04T03:13:27.315Z,980.2
2017-09-04T03:14:29.358Z,980.2
2017-09-04T03:15:31.455Z,980.2
2017-09-04T03:16:33.847Z,980.2
2017-09-04T03:17:36.030Z,980.2
2017-09-04T03:18:38.157Z,980.2
2017-09-04T03:19:40.229Z,980.2
2017-09-04T03:20:42.326Z,980.3
2017-09-04T03:21:44.791Z,980.3
2017-09-04T03:22:46.801Z,980.3
2017-09-04T03:23:48.862Z,980.3
2017-09-04T03:24:50.971Z,980.3
2017-09-04T03:25:53.049Z,980.2
2017-09-04T03:26:55.415Z,980.2
2017-09-04T03:27:57.519Z,980.3
2017-09-04T03:28:59.576Z,980.3
2017-09-04T03:30:01.677Z,980.1
2017-09-04T03:31:03.829Z,980.1
2017-09-04T03:32:06.206Z,980.2
2017-09-04T03:33:08.262Z,980.1
2017-09-04T03:34:10.391Z,980.1
2017-09-04T03:35:12.444Z,980.1
2017-09-04T03:36:14.557Z,980.1
2017-09-04T03:37:16.930Z,980.2
2017-09-04T03:38:19.029Z,980.1
2017-09-04T03:39:21.090Z,980.2
2017-09-04T03:40:23.204Z,980.1
2017-09-04T03:41:25.365Z,980.2
2017-09-04T03:42:27.906Z,980.2
2017-09-04T03:43:29.975Z,980.2
2017-09-04T03:44:32.089Z,980.1
2017-09-04T03:45:34.145Z,980.2
2017-09-04T03:46:36.248Z,980.1
2017-09-04T03:47:38.707Z,980.1
2017-09-04T03:48:40.795Z,980.2
2017-09-04T03:49:42.914Z,980.1
2017-09-04T03:50:45.041Z,980.2
2017-09-04T03:51:47.059Z,980.1
2017-09-04T03:52:49.592Z,980.2
2017-09-04T03:53:51.852Z,980.3
2017-09-04T03:54:53.903Z,980.2
2017-09-04T03:55:55.947Z,980.3
2017-09-04T03:56:58.023Z,980.3
2017-09-04T03:58:00.472Z,980.2
2017-09-04T03:59:02.486Z,980.2
2017-09-04T04:00:04.541Z,980.2
2017-09-04T04:01:06.685Z,980.2
2017-09-04T04:02:08.772Z,980.2
2017-09-04T04:03:11.191Z,980.2
2017-09-04T04:04:13.260Z,980.2
2017-09-04T04:05:15.325Z,980.2
2017-09-04T04:06:17.486Z,980.3
2017-09-04T04:07:19.552Z,980.3
2017-09-04T04:08:21.899Z,980.2
2017-09-04T04:09:24.029Z,980.2
2017-09-04T04:10:26.078Z,980.2
2017-09-04T04:11:28.170Z,980.2
2017-09-04T04:12:30.278Z,980.2
2017-09-04T04:13:32.722Z,980.2
2017-09-04T04:14:34.829Z,980.2
2017-09-04T04:15:36.920Z,980.1
2017-09-04T04:16:39.339Z,980.2
2017-09-04T04:17:41.603Z,980.2
2017-09-04T04:18:44.015Z,980.2
2017-09-04T04:19:46.063Z,980.2
2017-09-04T04:20:48.135Z,980.2
2017-09-04T04:21:50.233Z,980.2
2017-09-04T04:22:52.324Z,980.2
2017-09-04T04:23:54.725Z,980.3
2017-09-04T04:24:56.797Z,980.2
2017-09-04T04:25:58.905Z,980.3
2017-09-04T04:27:01.029Z,980.3
2017-09-04T04:28:03.140Z,980.3
2017-09-04T04:29:05.611Z,980.3
2017-09-04T04:30:07.702Z,980.3
2017-09-04T04:31:09.832Z,980.3
2017-09-04T04:32:11.897Z,980.3
2017-09-04T04:33:13.980Z,980.4
2017-09-04T04:34:16.440Z,980.4
2017-09-04T04:35:18.538Z,980.5
2017-09-04T04:36:20.685Z,980.4
2017-09-04T04:37:22.759Z,980.4
2017-09-04T04:38:24.869Z,980.4
2017-09-04T04:39:27.312Z,980.5
2017-09-04T04:40:29.388Z,980.4
2017-09-04T04:41:31.470Z,980.4
2017-09-04T04:42:33.511Z,980.5
2017-09-04T04:43:35.624Z,980.4
2017-09-04T04:44:38.005Z,980.5
2017-09-04T04:45:40.162Z,980.4
2017-09-04T04:46:42.327Z,980.5
2017-09-04T04:47:44.406Z,980.5
2017-09-04T04:48:46.496Z,980.5
2017-09-04T04:49:48.900Z,980.5
2017-09-04T04:50:51.037Z,980.5
2017-09-04T04:51:53.107Z,980.5
2017-09-04T04:52:55.222Z,980.5
2017-09-04T04:53:57.360Z,980.5
2017-09-04T04:54:59.771Z,980.5
2017-09-04T04:56:01.867Z,980.6
2017-09-04T04:57:03.932Z,980.6
2017-09-04T04:58:06.017Z,980.6
2017-09-04T04:59:08.128Z,980.7
2017-09-04T05:00:10.547Z,980.6
2017-09-04T05:01:12.624Z,980.6
2017-09-04T05:02:14.750Z,980.6
2017-09-04T05:03:16.853Z,980.6
2017-09-04T05:04:18.978Z,980.7
2017-09-04T05:05:21.389Z,980.7
2017-09-04T05:06:23.448Z,980.6
2017-09-04T05:07:25.529Z,980.6
2017-09-04T05:08:27.636Z,980.6
2017-09-04T05:09:29.712Z,980.7
2017-09-04T05:10:32.108Z,980.7
2017-09-04T05:11:34.246Z,980.7
2017-09-04T05:12:36.326Z,980.6
2017-09-04T05:13:38.430Z,980.6
2017-09-04T05:14:40.509Z,980.6
2017-09-04T05:15:42.880Z,980.7
2017-09-04T05:16:44.971Z,980.7
2017-09-04T05:17:47.053Z,980.7
2017-09-04T05:18:49.164Z,980.7
2017-09-04T05:19:51.295Z,980.7
2017-09-04T05:20:53.745Z,980.7
2017-09-04T05:21:55.903Z,980.7
2017-09-04T05:22:58.021Z,980.7
2017-09-04T05:24:00.143Z,980.7
2017-09-04T05:25:02.194Z,980.8
2017-09-04T05:26:04.674Z,980.8
2017-09-04T05:27:06.741Z,980.8
2017-09-04T05:28:08.868Z,980.8
2017-09-04T05:29:10.928Z,980.7
2017-09-04T05:30:13.039Z,980.7
2017-09-04T05:31:15.440Z,980.8
2017-09-04T05:32:17.560Z,980.8
2017-09-04T05:33:19.743Z,980.9
2017-09-04T05:34:21.810Z,980.8
2017-09-04T05:35:23.898Z,980.8
2017-09-04T05:36:26.411Z,980.8
2017-09-04T05:37:28.546Z,980.8
2017-09-04T05:38:30.656Z,980.9
2017-09-04T05:39:32.964Z,980.9
2017-09-04T05:40:35.056Z,980.8
2017-09-04T05:41:37.640Z,980.9
2017-09-04T05:42:39.723Z,980.8
2017-09-04T05:43:41.789Z,980.9
2017-09-04T05:44:43.924Z,980.9
2017-09-04T05:45:46.036Z,980.8
2017-09-04T05:46:48.388Z,980.8
2017-09-04T05:47:50.483Z,980.9
2017-09-04T05:48:52.520Z,980.9
2017-09-04T05:49:54.838Z,980.8
2017-09-04T05:50:56.986Z,980.8
2017-09-04T05:51:59.486Z,980.8
2017-09-04T05:53:01.645Z,980.8
2017-09-04T05:54:03.672Z,980.9
2017-09-04T05:55:05.760Z,980.9
2017-09-04T05:56:07.883Z,980.9
2017-09-04T05:57:10.316Z,981
2017-09-04T05:58:12.459Z,980.9
2017-09-04T05:59:14.583Z,981
2017-09-04T06:00:16.627Z,981
2017-09-04T06:01:18.673Z,981
2017-09-04T06:02:21.127Z,981
2017-09-04T06:03:23.303Z,981
2017-09-04T06:04:25.371Z,981
2017-09-04T06:05:27.515Z,981
2017-09-04T06:06:30.360Z,980.9
2017-09-04T06:07:32.767Z,981
2017-09-04T06:08:34.906Z,981.1
2017-09-04T06:09:36.990Z,980.9
2017-09-04T06:10:39.255Z,980.9
2017-09-04T06:11:41.440Z,980.9
2017-09-04T06:12:43.843Z,980.9
2017-09-04T06:13:45.971Z,981
2017-09-04T06:14:48.070Z,980.9
2017-09-04T06:15:50.103Z,981
2017-09-04T06:16:52.482Z,981
2017-09-04T06:17:54.861Z,981
2017-09-04T06:18:56.957Z,981
2017-09-04T06:19:59.079Z,980.9
2017-09-04T06:21:01.178Z,981.1
2017-09-04T06:22:03.230Z,980.9
2017-09-04T06:23:05.637Z,980.9
2017-09-04T06:24:07.695Z,981.1
2017-09-04T06:25:09.804Z,980.9
2017-09-04T06:26:11.903Z,981
2017-09-04T06:27:14.023Z,981
2017-09-04T06:28:16.441Z,981
2017-09-04T06:29:18.511Z,981
2017-09-04T06:30:20.703Z,980.9
2017-09-04T06:31:22.850Z,980.9
2017-09-04T06:32:25.066Z,980.9
2017-09-04T06:33:27.461Z,981
2017-09-04T06:34:29.514Z,980.9
2017-09-04T06:35:31.658Z,981
2017-09-04T06:36:33.802Z,981.1
2017-09-04T06:37:35.970Z,981.1
2017-09-04T06:38:38.485Z,980.9
2017-09-04T06:39:40.650Z,981
2017-09-04T06:40:42.813Z,981
2017-09-04T06:41:44.937Z,981
2017-09-04T06:42:47.145Z,981
2017-09-04T06:43:49.714Z,981.1
2017-09-04T06:44:51.901Z,981
2017-09-04T06:45:54.098Z,981
2017-09-04T06:46:56.178Z,980.9
2017-09-04T06:47:58.383Z,980.9
2017-09-04T06:49:00.787Z,981
2017-09-04T06:50:02.913Z,981.1
2017-09-04T06:51:05.050Z,981
2017-09-04T06:52:07.195Z,981
2017-09-04T06:53:09.357Z,981
2017-09-04T06:54:11.845Z,981
2017-09-04T06:55:13.987Z,980.9
2017-09-04T06:56:16.225Z,981
2017-09-04T06:57:18.387Z,981
2017-09-04T06:58:20.467Z,980.9
2017-09-04T06:59:22.869Z,980.9
2017-09-04T07:00:25.024Z,980.8
2017-09-04T07:01:27.163Z,980.9
2017-09-04T07:02:29.302Z,980.9
2017-09-04T07:03:31.551Z,980.8
2017-09-04T07:04:34.069Z,980.9
2017-09-04T07:05:36.397Z,980.9
2017-09-04T07:06:38.557Z,981
2017-09-04T07:07:40.734Z,980.8
2017-09-04T07:08:43.135Z,980.9
2017-09-04T07:09:45.515Z,981
2017-09-04T07:10:47.742Z,981.1
2017-09-04T07:11:49.912Z,981.1
2017-09-04T07:12:52.011Z,981
2017-09-04T07:13:54.151Z,981.1
2017-09-04T07:14:56.631Z,981.1
2017-09-04T07:15:58.833Z,981.1
2017-09-04T07:17:01.029Z,981.2
2017-09-04T07:18:03.194Z,981.2
2017-09-04T07:19:05.466Z,981.1
2017-09-04T07:20:07.874Z,981.2
2017-09-04T07:21:09.975Z,981.1
2017-09-04T07:22:12.326Z,981.1
2017-09-04T07:23:14.547Z,981.3
2017-09-04T07:24:16.810Z,981.2
2017-09-04T07:25:19.246Z,981.1
2017-09-04T07:26:21.849Z,981.3
2017-09-04T07:27:23.962Z,981.3
2017-09-04T07:28:26.074Z,981.4
2017-09-04T07:29:28.201Z,981.3
2017-09-04T07:30:30.641Z,981.2
2017-09-04T07:31:32.759Z,981.3
2017-09-04T07:32:34.886Z,981.3
2017-09-04T07:33:36.969Z,981.3
2017-09-04T07:34:39.098Z,981.3
2017-09-04T07:35:41.515Z,981.3
2017-09-04T07:36:43.730Z,981.3
2017-09-04T07:37:45.844Z,981.5
2017-09-04T07:38:48.034Z,981.4
2017-09-04T07:39:50.242Z,981.4
2017-09-04T07:40:52.646Z,981.4
2017-09-04T07:41:55.107Z,981.4
2017-09-04T07:42:57.468Z,981.4
2017-09-04T07:43:59.685Z,981.3
2017-09-04T07:45:01.978Z,981.4
2017-09-04T07:46:04.416Z,981.4
2017-09-04T07:47:06.551Z,981.5
2017-09-04T07:48:08.648Z,981.4
2017-09-04T07:49:10.732Z,981.4
2017-09-04T07:50:12.916Z,981.4
2017-09-04T07:51:15.363Z,981.5
2017-09-04T07:52:17.535Z,981.4
2017-09-04T07:53:19.675Z,981.4
2017-09-04T07:54:21.836Z,981.4
2017-09-04T07:55:23.996Z,981.3
2017-09-04T07:56:26.171Z,981.5
2017-09-04T07:57:28.337Z,981.6
2017-09-04T07:58:30.472Z,981.5
2017-09-04T07:59:32.592Z,981.5
2017-09-04T08:00:34.696Z,981.7
2017-09-04T08:01:36.764Z,981.6
2017-09-04T08:02:38.834Z,981.7
2017-09-04T08:03:41.091Z,981.6
2017-09-04T08:04:43.203Z,981.7
2017-09-04T08:05:45.274Z,981.6
2017-09-04T08:06:47.454Z,981.8
2017-09-04T08:07:49.590Z,981.6
2017-09-04T08:08:51.669Z,981.8
2017-09-04T08:09:53.837Z,981.6
2017-09-04T08:10:55.933Z,981.7
2017-09-04T08:11:58.340Z,981.7
2017-09-04T08:13:00.426Z,981.7
2017-09-04T08:14:02.514Z,981.7
2017-09-04T08:15:04.600Z,981.8
2017-09-04T08:16:06.682Z,981.8
2017-09-04T08:17:09.121Z,981.8
2017-09-04T08:18:11.231Z,981.9
2017-09-04T08:19:13.304Z,981.8
2017-09-04T08:20:15.459Z,981.9
2017-09-04T08:21:17.540Z,981.8
2017-09-04T08:22:19.947Z,981.8
2017-09-04T08:23:22.054Z,981.8
2017-09-04T08:24:24.225Z,981.9
2017-09-04T08:25:26.375Z,981.9
2017-09-04T08:26:28.467Z,981.9
2017-09-04T08:27:30.897Z,981.9
2017-09-04T08:28:33.050Z,981.9
2017-09-04T08:29:35.148Z,981.9
2017-09-04T08:30:37.251Z,981.9
2017-09-04T08:31:39.411Z,981.9
2017-09-04T08:32:41.781Z,981.9
2017-09-04T08:33:44.036Z,981.7
2017-09-04T08:34:46.134Z,981.7
2017-09-04T08:35:48.257Z,981.8
2017-09-04T08:36:50.377Z,981.9
2017-09-04T08:37:52.765Z,981.9
2017-09-04T08:38:54.867Z,981.9
2017-09-04T08:39:57.002Z,981.9
2017-09-04T08:40:59.218Z,981.9
2017-09-04T08:42:01.437Z,981.9
2017-09-04T08:43:03.918Z,981.8
2017-09-04T08:44:06.026Z,982.1
2017-09-04T08:45:08.133Z,982.1
2017-09-04T08:46:10.232Z,982.1
2017-09-04T08:47:12.409Z,982.2
2017-09-04T08:48:15.014Z,982.1
2017-09-04T08:49:17.123Z,982
2017-09-04T08:50:19.232Z,982.1
2017-09-04T08:51:21.324Z,982.1
2017-09-04T08:52:23.385Z,982.1
2017-09-04T08:53:25.812Z,982.2
2017-09-04T08:54:27.957Z,982.3
2017-09-04T08:55:30.022Z,982.3
2017-09-04T08:56:32.195Z,982.2
2017-09-04T08:57:34.284Z,982.1
2017-09-04T08:58:36.702Z,982.2
2017-09-04T08:59:38.866Z,982.1
2017-09-04T09:00:41.011Z,982.1
2017-09-04T09:01:43.120Z,982.1
2017-09-04T09:02:45.221Z,982
2017-09-04T09:03:47.635Z,982.1
2017-09-04T09:04:49.909Z,982.2
2017-09-04T09:05:52.071Z,982.2
2017-09-04T09:06:54.163Z,982.2
2017-09-04T09:07:56.295Z,982
2017-09-04T09:08:58.738Z,982.1
2017-09-04T09:10:00.876Z,982.1
2017-09-04T09:11:03.008Z,982
2017-09-04T09:12:05.080Z,982.2
2017-09-04T09:13:07.203Z,982
2017-09-04T09:14:09.707Z,982
2017-09-04T09:15:11.821Z,982.1
2017-09-04T09:16:13.931Z,981.9
2017-09-04T09:17:15.990Z,981.9
2017-09-04T09:18:18.108Z,981.9
2017-09-04T09:19:20.444Z,981.9
2017-09-04T09:20:22.596Z,981.9
2017-09-04T09:21:24.752Z,982
2017-09-04T09:22:27.043Z,982.1
2017-09-04T09:23:29.192Z,982.1
2017-09-04T09:24:31.684Z,982
2017-09-04T09:25:33.799Z,981.8
2017-09-04T09:26:35.939Z,981.9
2017-09-04T09:27:38.013Z,982.1
2017-09-04T09:28:40.062Z,981.9
2017-09-04T09:29:42.513Z,982
2017-09-04T09:30:44.822Z,981.9
2017-09-04T09:31:46.928Z,982.1
2017-09-04T09:32:49.134Z,981.9
2017-09-04T09:33:51.273Z,982.2
2017-09-04T09:34:53.615Z,981.8
2017-09-04T09:35:55.716Z,981.9
2017-09-04T09:36:57.927Z,982
2017-09-04T09:38:00.020Z,982.1
2017-09-04T09:39:02.081Z,981.7
2017-09-04T09:40:04.436Z,981.9
2017-09-04T09:41:06.566Z,981.8
2017-09-04T09:42:08.706Z,981.9
2017-09-04T09:43:10.803Z,981.9
2017-09-04T09:44:12.867Z,982.1
2017-09-04T09:45:15.339Z,982.1
2017-09-04T09:46:17.519Z,982
2017-09-04T09:47:19.673Z,981.9
2017-09-04T09:48:21.830Z,981.7
2017-09-04T09:49:24.007Z,981.7
2017-09-04T09:50:26.556Z,981.8
2017-09-04T09:51:28.696Z,981.9
2017-09-04T09:52:30.821Z,981.9
2017-09-04T09:53:32.969Z,981.9
2017-09-04T09:54:35.067Z,981.7
2017-09-04T09:55:37.454Z,981.5
2017-09-04T09:56:39.632Z,981.9
2017-09-04T09:57:41.770Z,981.9
2017-09-04T09:58:44.000Z,981.8
2017-09-04T09:59:46.919Z,982
2017-09-04T10:00:49.355Z,981.7
2017-09-04T10:01:51.449Z,981.8
2017-09-04T10:02:53.575Z,981.8
2017-09-04T10:03:55.718Z,981.8
2017-09-04T10:04:57.872Z,981.9
2017-09-04T10:06:00.217Z,981.9
2017-09-04T10:07:02.351Z,981.5
2017-09-04T10:08:04.459Z,981.6
2017-09-04T10:09:06.592Z,981.7
2017-09-04T10:10:08.718Z,981.7
2017-09-04T10:11:11.243Z,981.9
2017-09-04T10:12:13.384Z,981.6
2017-09-04T10:13:16.179Z,981.6
2017-09-04T10:14:18.284Z,981.7
2017-09-04T10:15:20.361Z,981.6
2017-09-04T10:16:22.770Z,981.5
2017-09-04T10:17:24.878Z,981.6
2017-09-04T10:18:27.025Z,981.7
2017-09-04T10:19:29.422Z,981.6
2017-09-04T10:20:31.798Z,981.7
2017-09-04T10:21:34.363Z,981.7
2017-09-04T10:22:36.519Z,981.6
2017-09-04T10:23:38.669Z,981.6
2017-09-04T10:24:40.806Z,981.6
2017-09-04T10:25:42.967Z,981.5
2017-09-04T10:26:45.434Z,981.6
2017-09-04T10:27:47.572Z,981.7
2017-09-04T10:28:49.700Z,981.6
2017-09-04T10:29:51.852Z,981.6
2017-09-04T10:30:53.982Z,981.6
2017-09-04T10:31:56.037Z,981.6
2017-09-04T10:32:58.085Z,981.6
2017-09-04T10:34:00.421Z,981.6
2017-09-04T10:35:02.645Z,981.6
2017-09-04T10:36:04.732Z,981.6
2017-09-04T10:37:07.194Z,981.7
2017-09-04T10:38:09.351Z,981.7
2017-09-04T10:39:11.456Z,981.7
2017-09-04T10:40:13.609Z,981.7
2017-09-04T10:41:15.647Z,981.6
2017-09-04T10:42:18.140Z,981.7
2017-09-04T10:43:20.253Z,981.6
2017-09-04T10:44:22.366Z,981.6
2017-09-04T10:45:24.485Z,981.7
2017-09-04T10:46:26.580Z,981.7
2017-09-04T10:47:29.011Z,981.7
2017-09-04T10:48:31.083Z,981.7
2017-09-04T10:49:33.156Z,981.7
2017-09-04T10:50:35.284Z,981.7
2017-09-04T10:51:37.398Z,981.6
2017-09-04T10:52:39.749Z,981.7
2017-09-04T10:53:41.832Z,981.6
2017-09-04T10:54:43.930Z,981.6
2017-09-04T10:55:46.007Z,981.6
2017-09-04T10:56:48.084Z,981.6
2017-09-04T10:57:50.543Z,981.6
2017-09-04T10:58:52.682Z,981.6
2017-09-04T10:59:54.776Z,981.6
2017-09-04T11:00:56.865Z,981.7
2017-09-04T11:01:58.937Z,981.6
2017-09-04T11:03:01.312Z,981.7
2017-09-04T11:04:03.418Z,981.6
2017-09-04T11:05:05.524Z,981.7
2017-09-04T11:06:07.934Z,981.7
2017-09-04T11:07:10.308Z,981.6
2017-09-04T11:08:12.715Z,981.6
2017-09-04T11:09:14.827Z,981.6
2017-09-04T11:10:16.994Z,981.7
2017-09-04T11:11:19.157Z,981.7
2017-09-04T11:12:21.223Z,981.7
2017-09-04T11:13:23.766Z,981.6
2017-09-04T11:14:25.911Z,981.6
2017-09-04T11:15:28.058Z,981.7
2017-09-04T11:16:30.188Z,981.4
2017-09-04T11:17:32.304Z,981.6
2017-09-04T11:18:34.676Z,981.6
2017-09-04T11:19:36.916Z,981.5
2017-09-04T11:20:39.008Z,981.6
2017-09-04T11:21:41.103Z,981.5
2017-09-04T11:22:43.660Z,981.5
2017-09-04T11:23:46.118Z,981.5
2017-09-04T11:24:48.365Z,981.5
2017-09-04T11:25:50.456Z,981.5
2017-09-04T11:26:52.735Z,981.5
2017-09-04T11:27:55.013Z,981.5
2017-09-04T11:28:57.617Z,981.5
2017-09-04T11:29:59.821Z,981.4
2017-09-04T11:31:01.936Z,981.5
2017-09-04T11:32:04.065Z,981.6
2017-09-04T11:33:06.189Z,981.6
2017-09-04T11:34:08.653Z,981.5
2017-09-04T11:35:10.702Z,981.5
2017-09-04T11:36:12.818Z,981.6
2017-09-04T11:37:14.958Z,981.6
2017-09-04T11:38:17.034Z,981.6
2017-09-04T11:39:19.492Z,981.6
2017-09-04T11:40:21.648Z,981.6
2017-09-04T11:41:23.737Z,981.5
2017-09-04T11:42:25.875Z,981.5
2017-09-04T11:43:27.946Z,981.6
2017-09-04T11:44:30.363Z,981.6
2017-09-04T11:45:32.406Z,981.6
2017-09-04T11:46:34.542Z,981.5
2017-09-04T11:47:36.731Z,981.6
2017-09-04T11:48:38.868Z,981.5
2017-09-04T11:49:41.223Z,981.6
2017-09-04T11:50:43.305Z,981.6
2017-09-04T11:51:45.456Z,981.5
2017-09-04T11:52:47.565Z,981.5
2017-09-04T11:53:49.621Z,981.5
2017-09-04T11:54:52.002Z,981.5
2017-09-04T11:55:54.086Z,981.6
2017-09-04T11:56:56.155Z,981.5
2017-09-04T11:57:58.273Z,981.6
2017-09-04T11:59:00.458Z,981.6
2017-09-04T12:00:02.944Z,981.6
2017-09-04T12:01:05.025Z,981.6
2017-09-04T12:02:07.175Z,981.5
2017-09-04T12:03:09.396Z,981.5
2017-09-04T12:04:11.496Z,981.6
2017-09-04T12:05:14.105Z,981.5
2017-09-04T12:06:16.472Z,981.5
2017-09-04T12:07:18.733Z,981.6
2017-09-04T12:08:20.847Z,981.6
2017-09-04T12:09:22.961Z,981.6
2017-09-04T12:10:25.369Z,981.6
2017-09-04T12:11:27.508Z,981.6
2017-09-04T12:12:29.616Z,981.6
2017-09-04T12:13:31.684Z,981.7
2017-09-04T12:14:33.834Z,981.7
2017-09-04T12:15:36.227Z,981.6
2017-09-04T12:16:38.348Z,981.6
2017-09-04T12:17:40.525Z,981.5
2017-09-04T12:18:42.600Z,981.5
2017-09-04T12:19:44.672Z,981.5
2017-09-04T12:20:47.090Z,981.6
2017-09-04T12:21:49.201Z,981.5
2017-09-04T12:22:51.232Z,981.5
2017-09-04T12:23:53.424Z,981.5
2017-09-04T12:24:55.623Z,981.5
2017-09-04T12:25:58.110Z,981.6
2017-09-04T12:27:00.378Z,981.5
2017-09-04T12:28:02.532Z,981.5
2017-09-04T12:29:04.672Z,981.5
2017-09-04T12:30:06.883Z,981.5
2017-09-04T12:31:08.986Z,981.5
2017-09-04T12:32:11.285Z,981.6
2017-09-04T12:33:13.476Z,981.5
2017-09-04T12:34:15.607Z,981.6
2017-09-04T12:35:17.622Z,981.6
2017-09-04T12:36:19.765Z,981.6
2017-09-04T12:37:21.916Z,981.6
2017-09-04T12:38:24.064Z,981.6
2017-09-04T12:39:26.228Z,981.6
2017-09-04T12:40:28.446Z,981.6
2017-09-04T12:41:30.599Z,981.5
2017-09-04T12:42:32.776Z,981.5
2017-09-04T12:43:34.878Z,981.5
2017-09-04T12:44:37.080Z,981.6
2017-09-04T12:45:39.248Z,981.5
2017-09-04T12:46:41.439Z,981.5
2017-09-04T12:47:43.585Z,981.5
2017-09-04T12:48:45.812Z,981.4
2017-09-04T12:49:47.966Z,981.5
2017-09-04T12:50:50.148Z,981.6
2017-09-04T12:51:52.321Z,981.5
2017-09-04T12:52:54.476Z,981.4
2017-09-04T12:53:56.565Z,981.5
2017-09-04T12:54:58.679Z,981.5
2017-09-04T12:56:00.784Z,981.6
2017-09-04T12:57:02.900Z,981.6
2017-09-04T12:58:04.976Z,981.5
2017-09-04T12:59:07.109Z,981.5
2017-09-04T13:00:09.415Z,981.5
2017-09-04T13:01:11.559Z,981.5
2017-09-04T13:02:14.060Z,981.5
2017-09-04T13:03:16.302Z,981.5
2017-09-04T13:04:18.388Z,981.5
2017-09-04T13:05:20.465Z,981.5
2017-09-04T13:06:22.661Z,981.5
2017-09-04T13:07:24.982Z,981.5
2017-09-04T13:08:27.114Z,981.5
2017-09-04T13:09:29.269Z,981.5
2017-09-04T13:10:31.365Z,981.5
2017-09-04T13:11:33.524Z,981.5
2017-09-04T13:12:35.997Z,981.5
2017-09-04T13:13:38.147Z,981.4
2017-09-04T13:14:40.299Z,981.4
2017-09-04T13:15:42.483Z,981.4
2017-09-04T13:16:44.567Z,981.4
2017-09-04T13:17:47.038Z,981.4
2017-09-04T13:18:49.127Z,981.4
2017-09-04T13:19:51.249Z,981.3
2017-09-04T13:20:53.346Z,981.4
2017-09-04T13:21:55.466Z,981.4
2017-09-04T13:22:57.874Z,981.4
2017-09-04T13:24:00.047Z,981.5